Time;durP1;ratioP1;P1;durP2;ratioP2;P2;SDS_P1;SDS_P2;PMS_P1;PMS_P2;Temp;Humidity;BMP_temperature;BMP_pressure;BME280_temperature;BME280_humidity;BME280_pressure;Samples;Min_cycle;Max_cycle;Signal;HPM_P1;HPM_P2
2022/06/14 00:01:59;;;;;;;8.90;4.10;;;;;17.50;97184.80;;;;108766;1267;41749;-64
2022/06/14 00:04:46;;;;;;;10.60;4.00;;;;;17.50;97183.80;;;;108755;1268;41176;-65
2022/06/14 00:07:34;;;;;;;9.30;3.80;;;;;17.50;97182.80;;;;108743;1269;41174;-65
2022/06/14 00:10:05;;;;;;;7.70;3.40;;;;;17.50;97182.20;;;;108814;1267;41175;-65
2022/06/14 00:12:34;;;;;;;10.30;3.70;;;;;17.50;97181.40;;;;108793;1267;41189;-66
2022/06/14 00:15:05;;;;;;;11.90;3.70;;;;;17.50;97185.20;;;;108789;1267;41168;-64
2022/06/14 00:17:35;;;;;;;8.00;3.60;;;;;17.50;97194.00;;;;108822;1267;41155;-64
2022/06/14 00:20:06;;;;;;;8.40;4.00;;;;;17.52;97204.80;;;;108804;1267;41416;-66
2022/06/14 00:22:36;;;;;;;7.10;3.20;;;;;17.60;97202.80;;;;108812;1267;41641;-65
2022/06/14 00:25:06;;;;;;;8.40;4.10;;;;;17.60;97204.00;;;;108846;1268;41436;-65
2022/06/14 00:27:36;;;;;;;8.90;4.40;;;;;17.60;97196.40;;;;108883;1266;41480;-67
2022/06/14 00:30:07;;;;;;;10.00;4.40;;;;;17.66;97200.40;;;;108844;1267;41285;-65
2022/06/14 00:32:37;;;;;;;8.60;4.30;;;;;17.60;97200.00;;;;108797;1267;42411;-66
2022/06/14 00:35:07;;;;;;;;;;;;;17.60;97196.00;;;;108799;1267;41182;-66
2022/06/14 00:37:38;;;;;;;9.10;4.40;;;;;17.58;97191.80;;;;108886;1267;41171;-65
2022/06/14 00:40:11;;;;;;;7.70;3.60;;;;;17.50;97193.00;;;;108832;1268;41289;-65
2022/06/14 00:42:40;;;;;;;6.80;2.90;;;;;17.40;97193.80;;;;108771;1269;41194;-65
2022/06/14 00:45:13;;;;;;;8.10;3.40;;;;;17.30;97194.20;;;;108921;1267;41954;-65
2022/06/14 00:47:45;;;;;;;7.30;3.30;;;;;17.30;97194.80;;;;108838;1268;41651;-65
2022/06/14 00:50:37;;;;;;;6.90;2.90;;;;;17.20;97196.40;;;;108909;1267;41178;-66
2022/06/14 00:53:15;;;;;;;7.00;2.80;;;;;17.12;97199.40;;;;108753;1269;42514;-65
2022/06/14 00:55:51;;;;;;;7.90;3.00;;;;;17.10;97207.20;;;;108939;1267;42020;-65
2022/06/14 00:58:25;;;;;;;7.30;3.10;;;;;17.00;97205.00;;;;108867;1268;41206;-65
2022/06/14 01:00:58;;;;;;;6.90;3.20;;;;;17.00;97204.00;;;;108939;1267;41287;-66
2022/06/14 01:03:41;;;;;;;7.90;2.80;;;;;16.92;97198.80;;;;108839;1267;41185;-66
2022/06/14 01:06:27;;;;;;;7.70;3.50;;;;;16.90;97201.40;;;;108953;1267;41166;-66
2022/06/14 01:09:05;;;;;;;8.30;3.40;;;;;16.90;97203.20;;;;108966;1267;42447;-65
2022/06/14 01:11:54;;;;;;;7.40;3.30;;;;;16.90;97201.00;;;;108893;1267;41284;-66
2022/06/14 01:14:33;;;;;;;8.10;3.40;;;;;16.90;97207.40;;;;108913;1267;41660;-65
2022/06/14 01:17:03;;;;;;;11.70;3.60;;;;;16.90;97207.00;;;;108875;1267;41185;-66
2022/06/14 01:19:34;;;;;;;7.90;3.50;;;;;16.84;97217.60;;;;108908;1267;41285;-66
2022/06/14 01:22:05;;;;;;;8.20;3.80;;;;;16.80;97219.80;;;;108781;1268;41168;-66
2022/06/14 01:24:40;;;;;;;9.10;4.00;;;;;16.80;97219.20;;;;108872;1267;42241;-65
2022/06/14 01:27:15;;;;;;;7.40;3.70;;;;;16.80;97217.80;;;;108866;1267;42418;-66
2022/06/14 01:29:52;;;;;;;8.40;3.90;;;;;16.86;97221.80;;;;108930;1267;41855;-66
2022/06/14 01:32:26;;;;;;;9.10;3.80;;;;;16.90;97219.00;;;;108842;1269;41192;-66
2022/06/14 01:34:59;;;;;;;8.70;4.30;;;;;16.90;97222.00;;;;108933;1266;41276;-63
2022/06/14 01:37:30;;;;;;;6.70;3.10;;;;;16.90;97225.20;;;;108997;1267;41774;-64
2022/06/14 01:40:01;;;;;;;;;;;;;16.94;97231.20;;;;108907;1267;41151;-65
2022/06/14 01:42:51;;;;;;;8.60;3.60;;;;;16.90;97226.00;;;;108856;1266;41747;-65
2022/06/14 01:45:31;;;;;;;8.40;4.00;;;;;17.00;97225.40;;;;108935;1267;42421;-66
2022/06/14 01:48:03;;;;;;;8.50;4.50;;;;;17.00;97230.00;;;;108967;1267;41236;-65
2022/06/14 01:54:08;;;;;;;10.10;4.50;;;;;17.00;97226.40;;;;108939;1267;41793;-66
2022/06/14 01:56:48;;;;;;;10.90;4.70;;;;;16.90;97226.80;;;;108893;1267;41174;-66
2022/06/14 01:59:28;;;;;;;9.60;5.00;;;;;16.84;97227.80;;;;109008;1267;41279;-65
2022/06/14 02:02:10;;;;;;;8.40;4.30;;;;;16.88;97226.20;;;;108939;1267;41969;-65
2022/06/14 02:05:16;;;;;;;8.80;4.00;;;;;16.90;97225.00;;;;108668;1270;41189;-66
2022/06/14 02:07:57;;;;;;;8.10;3.80;;;;;17.00;97227.40;;;;108981;1268;41193;-67
2022/06/14 02:10:37;;;;;;;8.30;3.80;;;;;17.02;97224.40;;;;108858;1267;41191;-66
2022/06/14 02:13:13;;;;;;;7.50;3.50;;;;;17.10;97228.20;;;;108792;1268;41898;-65
2022/06/14 02:15:50;;;;;;;7.80;3.50;;;;;17.10;97234.20;;;;108829;1268;41664;-65
2022/06/14 02:18:40;;;;;;;8.40;3.90;;;;;17.18;97233.80;;;;108957;1268;41657;-64
2022/06/14 02:21:19;;;;;;;7.90;3.60;;;;;17.20;97238.60;;;;108927;1267;41152;-64
2022/06/14 02:23:57;;;;;;;7.30;3.50;;;;;17.20;97236.00;;;;108787;1269;41176;-65
2022/06/14 02:26:38;;;;;;;8.50;3.20;;;;;17.20;97238.20;;;;108889;1267;41287;-65
2022/06/14 02:29:22;;;;;;;7.40;3.30;;;;;17.20;97241.80;;;;108911;1267;41394;-64
2022/06/14 02:31:59;;;;;;;6.10;2.90;;;;;17.20;97241.20;;;;108927;1267;41282;-65
2022/06/14 02:34:31;;;;;;;7.70;3.50;;;;;17.18;97240.80;;;;109000;1266;42226;-65
2022/06/14 02:37:21;;;;;;;7.70;3.70;;;;;17.10;97241.40;;;;108904;1267;41310;-65
2022/06/14 02:40:21;;;;;;;7.40;3.50;;;;;17.10;97238.40;;;;108957;1267;41649;-65
2022/06/14 02:43:11;;;;;;;9.50;3.70;;;;;17.10;97241.00;;;;109000;1267;41172;-65
2022/06/14 02:46:05;;;;;;;8.10;3.80;;;;;17.10;97243.40;;;;109037;1267;41174;-65
2022/06/14 02:49:04;;;;;;;9.00;4.30;;;;;17.10;97243.60;;;;108847;1268;41753;-65
2022/06/14 02:51:48;;;;;;;8.80;4.10;;;;;17.10;97258.20;;;;108932;1267;41266;-65
2022/06/14 02:54:46;;;;;;;9.20;4.40;;;;;17.10;97260.60;;;;108812;1268;41219;-65
2022/06/14 02:58:09;;;;;;;7.30;3.10;;;;;17.10;97269.00;;;;108837;1267;41158;-65
2022/06/14 03:01:31;;;;;;;9.20;3.60;;;;;17.10;97272.60;;;;108910;1267;41179;-65
2022/06/14 03:04:39;;;;;;;7.30;3.20;;;;;17.10;97283.00;;;;108875;1267;41968;-65
2022/06/14 03:07:31;;;;;;;7.30;3.20;;;;;17.10;97281.60;;;;108797;1268;41161;-65
2022/06/14 03:10:18;;;;;;;7.20;3.50;;;;;17.10;97284.80;;;;108935;1267;41495;-65
2022/06/14 03:13:28;;;;;;;8.70;4.30;;;;;17.18;97290.60;;;;108911;1267;42504;-66
2022/06/14 03:16:44;;;;;;;9.10;4.40;;;;;17.20;97292.60;;;;108914;1268;41616;-67
2022/06/14 03:19:55;;;;;;;10.00;5.70;;;;;17.30;97299.00;;;;109021;1267;41179;-66
2022/06/14 03:22:48;;;;;;;9.00;4.40;;;;;17.30;97304.00;;;;108846;1267;41631;-67
2022/06/14 03:25:40;;;;;;;10.80;5.30;;;;;17.30;97311.60;;;;108716;1268;41251;-65
2022/06/14 03:28:27;;;;;;;9.70;5.10;;;;;17.30;97311.80;;;;109040;1267;41801;-65
2022/06/14 03:31:31;;;;;;;10.50;4.90;;;;;17.40;97313.00;;;;108621;1267;41180;-65
2022/06/14 03:34:23;;;;;;;9.50;4.60;;;;;17.50;97315.80;;;;108815;1267;41158;-66
2022/06/14 03:37:13;;;;;;;10.60;5.00;;;;;17.60;97319.80;;;;108834;1269;41239;-67
2022/06/14 03:39:59;;;;;;;8.50;4.20;;;;;17.70;97322.40;;;;108789;1268;41181;-66
2022/06/14 03:42:33;;;;;;;9.60;4.30;;;;;17.74;97320.60;;;;108604;1267;41191;-66
2022/06/14 03:45:10;;;;;;;10.20;4.20;;;;;17.80;97329.00;;;;108690;1267;41179;-67
2022/06/14 03:47:44;;;;;;;9.20;3.90;;;;;17.90;97324.20;;;;108740;1270;41884;-66
2022/06/14 03:50:33;;;;;;;9.50;4.30;;;;;17.90;97327.40;;;;108659;1270;41194;-66
2022/06/14 03:53:14;;;;;;;8.60;4.10;;;;;18.00;97322.40;;;;108704;1270;41574;-65
2022/06/14 03:55:58;;;;;;;7.90;3.60;;;;;18.00;97326.00;;;;108589;1270;42424;-66
2022/06/14 03:58:36;;;;;;;7.80;3.20;;;;;18.10;97332.00;;;;108817;1268;41310;-66
2022/06/14 04:01:19;;;;;;;7.70;3.00;;;;;18.14;97336.40;;;;108848;1268;41285;-66
2022/06/14 04:03:58;;;;;;;6.70;3.30;;;;;18.24;97335.20;;;;108600;1270;41178;-65
2022/06/14 04:06:47;;;;;;;8.40;3.20;;;;;18.30;97344.00;;;;108862;1268;41294;-65
2022/06/14 04:09:27;;;;;;;7.30;3.10;;;;;18.40;97350.40;;;;108797;1270;42841;-66
2022/06/14 04:12:08;;;;;;;8.40;3.30;;;;;18.60;97349.20;;;;108656;1270;42157;-65
2022/06/14 04:15:13;;;;;;;6.90;3.30;;;;;18.70;97349.60;;;;108688;1270;41297;-65
2022/06/14 04:18:34;;;;;;;7.00;3.40;;;;;18.90;97351.20;;;;108728;1270;42153;-65
2022/06/14 04:21:23;;;;;;;7.10;3.10;;;;;19.06;97350.80;;;;108809;1269;41632;-66
2022/06/14 04:24:28;;;;;;;7.80;3.10;;;;;20.02;97343.00;;;;108695;1270;41655;-65
2022/06/14 04:27:12;;;;;;;6.70;2.80;;;;;20.94;97343.00;;;;108722;1269;41428;-65
2022/06/14 04:30:16;;;;;;;6.10;2.90;;;;;21.88;97346.00;;;;108624;1270;41174;-65
2022/06/14 04:32:53;;;;;;;9.80;3.10;;;;;22.28;97347.80;;;;108803;1269;41179;-65
2022/06/14 04:35:33;;;;;;;6.40;2.80;;;;;22.30;97350.20;;;;108786;1269;41484;-65
2022/06/14 04:38:12;;;;;;;7.10;3.10;;;;;22.34;97346.20;;;;108608;1270;42063;-65
2022/06/14 04:40:56;;;;;;;6.90;2.80;;;;;22.10;97362.60;;;;108606;1268;42424;-65
2022/06/14 04:43:54;;;;;;;6.00;2.80;;;;;21.48;97368.40;;;;108696;1270;41415;-65
2022/06/14 04:46:42;;;;;;;5.50;2.50;;;;;21.00;97372.00;;;;108840;1267;41892;-65
2022/06/14 04:49:26;;;;;;;7.30;2.90;;;;;20.50;97378.40;;;;108740;1268;41283;-65
2022/06/14 04:52:08;;;;;;;5.70;2.40;;;;;20.30;97382.40;;;;108904;1267;41863;-65
2022/06/14 04:54:37;;;;;;;5.60;2.40;;;;;20.30;97380.80;;;;108789;1268;41180;-66
2022/06/14 05:01:25;;;;;;;6.80;2.60;;;;;20.30;97389.60;;;;108921;1267;42798;-65
2022/06/14 05:04:21;;;;;;;6.20;2.60;;;;;20.20;97399.60;;;;108836;1269;41465;-66
2022/06/14 05:06:58;;;;;;;8.80;2.90;;;;;19.90;97397.40;;;;108888;1267;41725;-65
2022/06/14 05:09:34;;;;;;;9.10;3.00;;;;;19.70;97403.00;;;;108702;1270;41198;-65
2022/06/14 05:12:05;;;;;;;6.00;2.50;;;;;19.40;97407.80;;;;109064;1266;41384;-66
2022/06/14 05:14:39;;;;;;;5.50;2.40;;;;;19.24;97406.80;;;;108970;1266;41176;-66
2022/06/14 05:17:19;;;;;;;5.70;2.60;;;;;19.30;97407.60;;;;108733;1267;41216;-65
2022/06/14 05:20:06;;;;;;;5.90;2.20;;;;;19.30;97409.20;;;;108931;1267;41658;-65
2022/06/14 05:22:53;;;;;;;4.70;2.30;;;;;19.38;97412.00;;;;108936;1267;41176;-66
2022/06/14 05:25:23;;;;;;;5.60;2.30;;;;;19.50;97406.40;;;;108903;1266;41778;-65
2022/06/14 05:28:03;;;;;;;5.10;2.40;;;;;19.70;97410.20;;;;108923;1267;41991;-65
2022/06/14 05:30:56;;;;;;;3.80;1.90;;;;;19.80;97412.20;;;;108885;1267;41333;-65
2022/06/14 05:33:38;;;;;;;4.70;2.30;;;;;19.86;97418.60;;;;108763;1267;41146;-66
2022/06/14 05:36:31;;;;;;;6.40;2.30;;;;;19.80;97427.20;;;;108840;1268;41372;-66
2022/06/14 05:39:16;;;;;;;3.90;2.00;;;;;19.70;97430.20;;;;108817;1268;41720;-66
2022/06/14 05:41:57;;;;;;;6.20;1.90;;;;;19.90;97434.60;;;;108939;1266;41320;-65
2022/06/14 05:44:42;;;;;;;5.10;2.00;;;;;20.20;97435.80;;;;109004;1267;41580;-66
2022/06/14 05:47:15;;;;;;;4.10;1.80;;;;;20.40;97438.00;;;;108991;1267;42004;-65
2022/06/14 05:49:58;;;;;;;5.00;2.20;;;;;20.52;97445.00;;;;108705;1267;41221;-65
2022/06/14 05:52:33;;;;;;;3.50;2.00;;;;;20.70;97435.80;;;;108809;1267;41182;-65
2022/06/14 05:55:21;;;;;;;6.40;2.00;;;;;21.08;97438.60;;;;108806;1267;41176;-66
2022/06/14 05:58:01;;;;;;;3.80;1.90;;;;;22.18;97417.60;;;;108923;1268;41576;-66
2022/06/14 06:00:54;;;;;;;4.00;2.10;;;;;23.46;97409.80;;;;109101;1267;41258;-66
2022/06/14 06:03:27;;;;;;;4.50;1.90;;;;;24.46;97402.80;;;;108857;1267;41170;-65
2022/06/14 06:06:02;;;;;;;3.20;1.60;;;;;25.22;97411.40;;;;108971;1267;42057;-65
2022/06/14 06:08:34;;;;;;;3.40;1.80;;;;;25.04;97416.20;;;;108877;1267;41279;-65
2022/06/14 06:11:38;;;;;;;3.40;1.60;;;;;24.90;97421.40;;;;108951;1267;41627;-65
2022/06/14 06:14:36;;;;;;;2.00;1.50;;;;;25.52;97419.40;;;;108822;1267;41755;-65
2022/06/14 06:17:28;;;;;;;2.30;1.50;;;;;25.92;97419.60;;;;108982;1267;41203;-64
2022/06/14 06:20:06;;;;;;;3.40;1.80;;;;;26.32;97431.40;;;;108927;1267;41277;-65
2022/06/14 06:22:43;;;;;;;4.50;1.50;;;;;26.20;97426.20;;;;108890;1267;41392;-66
2022/06/14 06:25:17;;;;;;;4.80;1.70;;;;;26.10;97438.00;;;;108945;1267;41827;-66
2022/06/14 06:27:56;;;;;;;3.80;1.70;;;;;26.24;97421.40;;;;108793;1267;41168;-66
2022/06/14 06:30:40;;;;;;;5.00;1.80;;;;;26.22;97434.40;;;;108499;1267;41295;-66
2022/06/14 06:33:15;;;;;;;3.60;1.50;;;;;25.80;97445.60;;;;108826;1267;41994;-68
2022/06/14 06:36:12;;;;;;;2.10;1.50;;;;;25.72;97440.40;;;;108779;1268;41801;-65
2022/06/14 06:42:38;;;;;;;2.70;1.50;;;;;26.50;97446.60;;;;108947;1267;41801;-66
2022/06/14 06:45:22;;;;;;;2.30;1.40;;;;;27.22;97444.20;;;;108893;1267;41918;-66
2022/06/14 06:47:55;;;;;;;2.80;1.60;;;;;28.20;97448.80;;;;108831;1268;41169;-66
2022/06/14 06:50:38;;;;;;;6.00;1.90;;;;;28.24;97446.60;;;;108940;1267;41179;-66
2022/06/14 06:53:10;;;;;;;4.10;1.40;;;;;28.44;97445.20;;;;108950;1267;41676;-66
2022/06/14 06:55:56;;;;;;;5.00;1.30;;;;;29.00;97446.80;;;;108777;1267;41275;-63
2022/06/14 06:58:31;;;;;;;4.00;1.60;;;;;29.68;97450.00;;;;109051;1265;41180;-64
2022/06/14 07:01:09;;;;;;;5.00;1.70;;;;;29.86;97451.40;;;;108819;1268;41218;-64
2022/06/14 07:03:49;;;;;;;3.60;1.60;;;;;30.00;97447.40;;;;108729;1269;42076;-65
2022/06/14 07:06:41;;;;;;;2.00;1.40;;;;;30.02;97455.40;;;;108831;1267;41753;-65
2022/06/14 07:09:56;;;;;;;5.20;1.60;;;;;29.50;97460.40;;;;108909;1267;41628;-66
2022/06/14 07:26:34;;;;;;;3.00;1.60;;;;;26.72;97474.00;;;;106665;1290;581671;-63
2022/06/14 07:29:11;;;;;;;3.20;1.50;;;;;26.10;97476.40;;;;109508;1264;41266;-64
2022/06/14 07:31:55;;;;;;;2.40;1.40;;;;;25.74;97485.40;;;;109502;1266;41230;-63
2022/06/14 07:34:26;;;;;;;3.30;1.50;;;;;25.60;97486.60;;;;109454;1263;41171;-63
2022/06/14 07:37:10;;;;;;;;;;;;;25.40;97486.80;;;;109401;1265;41157;-64
2022/06/14 07:39:42;;;;;;;2.40;1.40;;;;;25.50;97494.20;;;;109661;1263;41821;-63
2022/06/14 07:42:23;;;;;;;3.00;1.40;;;;;25.40;97495.20;;;;109341;1264;41298;-64
2022/06/14 07:45:15;;;;;;;2.50;1.40;;;;;25.40;97496.80;;;;109655;1263;41304;-64
2022/06/14 07:48:23;;;;;;;2.20;1.50;;;;;25.30;97506.00;;;;110306;1256;41162;-63
2022/06/14 07:51:05;;;;;;;3.30;1.70;;;;;25.38;97499.60;;;;110306;1257;42498;-64
2022/06/14 07:53:43;;;;;;;3.30;1.50;;;;;25.00;97504.80;;;;110316;1257;41295;-64
2022/06/14 07:56:20;;;;;;;4.90;1.50;;;;;25.00;97502.00;;;;110280;1256;40956;-63
2022/06/14 07:58:57;;;;;;;2.80;1.40;;;;;25.00;97511.60;;;;110260;1257;41059;-64
2022/06/14 08:01:33;;;;;;;4.10;1.60;;;;;24.90;97514.20;;;;110235;1257;41849;-64
2022/06/14 08:04:18;;;;;;;4.30;1.70;;;;;25.00;97504.20;;;;110192;1257;41739;-64
2022/06/14 08:06:55;;;;;;;3.30;1.60;;;;;25.00;97501.20;;;;110106;1257;41851;-64
2022/06/14 08:09:32;;;;;;;3.00;1.50;;;;;25.14;97506.80;;;;110337;1256;42144;-64
2022/06/14 08:12:10;;;;;;;2.00;1.40;;;;;25.30;97511.00;;;;110183;1257;41159;-63
2022/06/14 08:14:53;;;;;;;2.70;1.40;;;;;25.50;97510.80;;;;110050;1257;41166;-63
2022/06/14 08:17:41;;;;;;;3.40;1.60;;;;;25.70;97512.80;;;;110345;1256;41625;-64
2022/06/14 08:20:18;;;;;;;3.20;1.60;;;;;25.80;97514.60;;;;110425;1256;41165;-64
2022/06/14 08:22:52;;;;;;;6.10;1.70;;;;;25.88;97514.20;;;;110493;1257;42089;-64
2022/06/14 08:25:24;;;;;;;3.70;1.50;;;;;25.96;97517.00;;;;110266;1256;41141;-64
2022/06/14 08:28:24;;;;;;;2.70;1.50;;;;;25.90;97521.40;;;;110047;1259;41284;-62
2022/06/14 08:30:55;;;;;;;2.70;1.50;;;;;25.96;97521.00;;;;110094;1257;41162;-64
2022/06/14 08:33:25;;;;;;;1.60;1.30;;;;;26.00;97520.00;;;;110350;1256;41143;-65
2022/06/14 08:36:45;;;;;;;3.10;1.50;;;;;26.00;97518.00;;;;110231;1257;42288;-64
2022/06/14 08:39:21;;;;;;;3.60;1.50;;;;;25.92;97525.20;;;;110295;1257;41787;-63
2022/06/14 08:42:02;;;;;;;3.50;1.50;;;;;26.00;97530.60;;;;110317;1257;41146;-64
2022/06/14 08:44:39;;;;;;;2.50;1.40;;;;;26.10;97527.20;;;;110256;1257;41274;-64
2022/06/14 08:47:54;;;;;;;3.90;1.60;;;;;26.30;97528.40;;;;110211;1257;41160;-66
2022/06/14 08:50:51;;;;;;;3.30;1.70;;;;;25.96;97529.40;;;;110001;1257;41157;-65
2022/06/14 08:53:32;;;;;;;2.90;1.50;;;;;25.88;97533.40;;;;110184;1257;41139;-64
2022/06/14 08:56:41;;;;;;;2.70;1.50;;;;;25.70;97530.80;;;;110433;1255;41611;-64
2022/06/14 08:59:48;;;;;;;2.80;1.50;;;;;25.60;97535.40;;;;110305;1256;41223;-64
2022/06/14 09:02:36;;;;;;;2.90;1.40;;;;;25.60;97540.80;;;;110316;1256;41175;-64
2022/06/14 09:05:13;;;;;;;2.60;1.50;;;;;25.60;97542.80;;;;110343;1256;42220;-64
2022/06/14 09:07:51;;;;;;;2.70;1.60;;;;;25.50;97540.80;;;;110307;1256;41290;-64
2022/06/14 09:10:32;;;;;;;3.00;1.50;;;;;25.90;97535.60;;;;110353;1257;41490;-64
2022/06/14 09:13:29;;;;;;;3.20;1.40;;;;;26.40;97529.60;;;;110343;1256;41144;-64
2022/06/14 09:16:11;;;;;;;3.20;1.50;;;;;27.00;97529.20;;;;110334;1257;41365;-64
2022/06/14 09:18:55;;;;;;;2.20;1.40;;;;;27.24;97520.40;;;;110351;1257;42383;-64
2022/06/14 09:21:31;;;;;;;2.90;1.50;;;;;27.52;97528.40;;;;110271;1256;41159;-65
2022/06/14 09:24:06;;;;;;;3.80;1.40;;;;;28.14;97520.20;;;;110342;1257;41212;-64
2022/06/14 09:27:06;;;;;;;2.50;1.40;;;;;28.90;97517.40;;;;110431;1256;41930;-63
2022/06/14 09:30:29;;;;;;;2.60;1.30;;;;;28.48;97521.80;;;;110317;1257;41648;-64
2022/06/14 09:33:17;;;;;;;3.40;1.60;;;;;29.50;97520.20;;;;109874;1256;41164;-63
2022/06/14 09:35:48;;;;;;;1.60;1.30;;;;;30.30;97511.60;;;;110290;1254;41938;-62
2022/06/14 09:38:21;;;;;;;2.50;1.40;;;;;31.04;97509.00;;;;110347;1257;41707;-64
2022/06/14 09:40:56;;;;;;;2.40;1.40;;;;;31.10;97508.40;;;;110324;1256;41178;-64
2022/06/14 09:43:46;;;;;;;3.70;1.40;;;;;31.16;97507.40;;;;110488;1256;41158;-63
2022/06/14 09:46:51;;;;;;;4.50;1.50;;;;;31.40;97508.20;;;;110447;1255;41371;-63
2022/06/14 09:49:45;;;;;;;3.50;1.30;;;;;31.16;97513.40;;;;110540;1253;41385;-63
2022/06/14 09:52:35;;;;;;;2.00;1.30;;;;;31.24;97514.60;;;;110648;1253;41158;-64
2022/06/14 09:55:22;;;;;;;3.20;1.30;;;;;31.10;97517.00;;;;110532;1253;42203;-64
2022/06/14 09:58:13;;;;;;;2.70;1.40;;;;;30.36;97516.20;;;;110467;1253;41892;-63
2022/06/14 10:00:49;;;;;;;1.50;1.20;;;;;30.12;97519.40;;;;110601;1253;41256;-64
2022/06/14 10:03:55;;;;;;;2.70;1.30;;;;;30.74;97516.20;;;;110564;1253;41535;-64
2022/06/14 10:06:58;;;;;;;1.70;1.30;;;;;31.20;97519.60;;;;110623;1253;41149;-64
2022/06/14 10:09:55;;;;;;;1.80;1.10;;;;;31.66;97510.60;;;;110499;1253;41258;-64
2022/06/14 10:13:09;;;;;;;2.30;1.30;;;;;31.80;97499.80;;;;110457;1253;42483;-63
2022/06/14 10:16:24;;;;;;;1.60;1.20;;;;;31.14;97516.00;;;;110579;1253;41275;-64
2022/06/14 10:19:13;;;;;;;4.70;1.20;;;;;30.88;97504.60;;;;110628;1253;41157;-64
2022/06/14 10:21:42;;;;;;;2.70;1.20;;;;;31.00;97503.00;;;;110479;1255;41353;-63
2022/06/14 10:24:38;;;;;;;1.20;1.10;;;;;30.78;97495.00;;;;110639;1253;41467;-64
2022/06/14 10:31:07;;;;;;;3.20;1.40;;;;;30.18;97507.80;;;;110515;1253;42507;-64
2022/06/14 10:33:54;;;;;;;2.30;1.20;;;;;30.18;97507.80;;;;110512;1254;41159;-64
2022/06/14 10:36:35;;;;;;;2.50;1.10;;;;;29.68;97507.00;;;;110644;1253;42365;-64
2022/06/14 10:39:31;;;;;;;1.80;1.20;;;;;29.22;97505.20;;;;110636;1253;41237;-62
2022/06/14 10:42:18;;;;;;;2.40;1.20;;;;;29.20;97502.80;;;;110582;1253;41130;-63
2022/06/14 10:45:17;;;;;;;2.30;1.20;;;;;29.30;97506.60;;;;110532;1253;41830;-64
2022/06/14 10:47:54;;;;;;;1.20;1.10;;;;;29.46;97491.80;;;;110261;1256;42550;-63
2022/06/14 10:50:50;;;;;;;1.20;1.00;;;;;29.42;97497.80;;;;110491;1254;41805;-64
2022/06/14 10:53:25;;;;;;;1.60;1.10;;;;;30.00;97489.80;;;;110486;1253;41161;-63
2022/06/14 10:56:15;;;;;;;2.70;1.30;;;;;30.24;97487.80;;;;110541;1254;41628;-64
2022/06/14 10:59:07;;;;;;;1.70;0.90;;;;;30.68;97490.40;;;;110529;1253;41194;-65
2022/06/14 11:01:59;;;;;;;1.50;1.00;;;;;31.62;97483.00;;;;110591;1253;41314;-63
2022/06/14 11:04:42;;;;;;;1.80;0.90;;;;;32.48;97471.80;;;;110482;1254;41463;-64
2022/06/14 11:07:26;;;;;;;1.70;1.10;;;;;32.70;97464.40;;;;110505;1253;41319;-64
2022/06/14 11:10:03;;;;;;;5.90;0.90;;;;;33.54;97461.80;;;;110474;1253;41741;-64
2022/06/14 11:12:53;;;;;;;1.00;0.80;;;;;34.12;97451.60;;;;110450;1253;42374;-63
2022/06/14 11:15:35;;;;;;;2.10;1.00;;;;;34.38;97453.00;;;;110463;1254;42321;-61
2022/06/14 11:18:11;;;;;;;1.00;0.80;;;;;35.10;97445.60;;;;110574;1251;41324;-63
2022/06/14 11:21:00;;;;;;;1.40;1.00;;;;;35.82;97444.80;;;;110443;1254;41257;-65
2022/06/14 11:23:47;;;;;;;2.90;1.20;;;;;35.70;97443.20;;;;110531;1254;41159;-65
2022/06/14 11:26:45;;;;;;;3.10;1.00;;;;;36.06;97436.40;;;;110752;1251;41612;-63
2022/06/14 11:29:20;;;;;;;1.50;1.00;;;;;36.20;97424.20;;;;110502;1253;42393;-63
2022/06/14 11:31:58;;;;;;;0.90;0.80;;;;;35.90;97429.40;;;;110519;1253;41694;-64
2022/06/14 11:34:39;;;;;;;0.80;0.80;;;;;35.60;97427.80;;;;110595;1253;41342;-64
2022/06/14 11:37:17;;;;;;;1.20;0.90;;;;;35.90;97429.80;;;;110420;1253;41188;-65
2022/06/14 11:39:59;;;;;;;1.60;1.10;;;;;35.94;97430.40;;;;110617;1254;41213;-65
2022/06/14 11:42:32;;;;;;;0.90;0.90;;;;;36.42;97435.40;;;;110502;1254;41150;-65
2022/06/14 11:45:27;;;;;;;1.10;0.90;;;;;36.34;97436.60;;;;110545;1253;41531;-64
2022/06/14 11:48:13;;;;;;;3.40;1.00;;;;;36.48;97439.00;;;;110530;1255;41668;-64
2022/06/14 11:50:48;;;;;;;1.90;1.00;;;;;36.30;97438.80;;;;110457;1253;41532;-65
2022/06/14 11:53:46;;;;;;;1.90;1.00;;;;;36.12;97438.20;;;;110631;1253;41143;-65
2022/06/14 11:56:38;;;;;;;2.10;1.10;;;;;35.90;97442.20;;;;110479;1253;41178;-64
2022/06/14 11:59:27;;;;;;;3.60;1.30;;;;;36.00;97441.40;;;;110630;1253;41975;-65
2022/06/14 12:02:11;;;;;;;4.00;1.00;;;;;35.96;97439.20;;;;110603;1253;41469;-64
2022/06/14 12:04:50;;;;;;;3.90;1.00;;;;;34.94;97447.00;;;;110521;1252;41169;-65
2022/06/14 12:07:24;;;;;;;2.50;0.90;;;;;34.02;97443.80;;;;110295;1254;41140;-64
2022/06/14 12:10:23;;;;;;;2.10;0.80;;;;;32.72;97453.00;;;;110488;1253;42109;-64
2022/06/14 12:13:17;;;;;;;1.70;0.90;;;;;31.82;97450.40;;;;110536;1253;42111;-64
2022/06/14 12:16:01;;;;;;;1.30;1.00;;;;;31.16;97456.60;;;;110547;1253;41210;-63
2022/06/14 12:18:35;;;;;;;5.20;1.10;;;;;30.70;97450.40;;;;110561;1253;41155;-64
2022/06/14 12:21:36;;;;;;;1.70;1.20;;;;;30.10;97451.00;;;;110340;1254;41149;-62
2022/06/14 12:24:09;;;;;;;1.80;1.10;;;;;29.58;97448.60;;;;110705;1253;41654;-65
2022/06/14 12:27:02;;;;;;;1.30;1.10;;;;;29.32;97456.80;;;;110499;1253;41149;-64
2022/06/14 12:29:46;;;;;;;2.30;1.20;;;;;29.20;97454.60;;;;110372;1255;41389;-65
2022/06/14 12:32:39;;;;;;;2.70;1.00;;;;;29.10;97451.60;;;;110353;1256;41264;-66
2022/06/14 12:35:24;;;;;;;1.70;1.20;;;;;29.10;97456.80;;;;110563;1253;41940;-63
2022/06/14 12:38:04;;;;;;;1.60;1.10;;;;;29.10;97455.20;;;;110404;1253;41158;-65
2022/06/14 12:41:02;;;;;;;5.30;1.20;;;;;29.10;97454.80;;;;110483;1250;41518;-65
2022/06/14 12:43:58;;;;;;;1.80;1.10;;;;;29.00;97457.40;;;;110552;1254;41261;-63
2022/06/14 12:46:31;;;;;;;3.10;1.30;;;;;29.10;97459.20;;;;110633;1253;41146;-65
2022/06/14 12:49:10;;;;;;;7.30;1.30;;;;;28.90;97459.60;;;;110452;1255;41190;-65
2022/06/14 12:51:52;;;;;;;2.30;1.20;;;;;28.82;97456.60;;;;110587;1253;41967;-64
2022/06/14 12:54:52;;;;;;;3.30;1.50;;;;;28.64;97452.80;;;;110629;1253;41137;-64
2022/06/14 12:57:21;;;;;;;;;;;;;28.30;97453.00;;;;110379;1253;41192;-65
2022/06/14 13:00:18;;;;;;;1.60;1.10;;;;;27.94;97461.20;;;;110574;1253;41597;-65
2022/06/14 13:02:59;;;;;;;4.90;1.40;;;;;27.80;97463.20;;;;110578;1254;41527;-64
2022/06/14 13:05:44;;;;;;;1.80;1.30;;;;;27.86;97460.00;;;;110522;1255;41858;-64
2022/06/14 13:08:16;;;;;;;1.60;1.10;;;;;27.68;97461.40;;;;110566;1253;41158;-64
2022/06/14 13:11:07;;;;;;;2.10;1.30;;;;;27.48;97462.60;;;;110496;1253;42048;-64
2022/06/14 13:13:52;;;;;;;3.60;1.30;;;;;27.40;97458.00;;;;110534;1254;41542;-65
2022/06/14 13:17:15;;;;;;;3.70;1.50;;;;;27.44;97451.40;;;;110710;1250;41233;-64
2022/06/14 13:19:54;;;;;;;5.00;1.50;;;;;27.46;97456.80;;;;110117;1261;41197;-65
2022/06/14 13:23:27;;;;;;;5.30;1.60;;;;;27.52;97460.20;;;;109781;1260;41284;-65
2022/06/14 13:26:13;;;;;;;5.50;1.40;;;;;27.50;97462.60;;;;108872;1265;41381;-65
2022/06/14 13:28:50;;;;;;;5.50;1.50;;;;;27.26;97458.20;;;;109025;1267;41932;-64
2022/06/14 13:31:24;;;;;;;3.50;1.40;;;;;27.40;97464.00;;;;109064;1265;41147;-64
2022/06/14 13:34:00;;;;;;;6.60;1.50;;;;;27.40;97470.60;;;;109041;1268;41319;-64
2022/06/14 13:36:54;;;;;;;3.20;1.40;;;;;27.26;97476.20;;;;109069;1267;42080;-64
2022/06/14 13:39:33;;;;;;;3.70;1.40;;;;;27.12;97483.00;;;;109077;1265;41693;-64
2022/06/14 13:42:36;;;;;;;2.80;1.40;;;;;27.46;97478.60;;;;109012;1265;41496;-64
2022/06/14 13:45:21;;;;;;;3.90;1.30;;;;;27.40;97484.60;;;;108983;1267;41633;-64
2022/06/14 13:47:56;;;;;;;4.60;1.50;;;;;27.30;97477.00;;;;109048;1267;41619;-64
2022/06/14 13:50:47;;;;;;;3.00;1.50;;;;;27.30;97484.20;;;;109182;1263;41169;-64
2022/06/14 13:53:59;;;;;;;2.80;1.40;;;;;27.20;97480.00;;;;109636;1263;41174;-63
2022/06/14 13:56:37;;;;;;;3.50;1.40;;;;;27.20;97481.20;;;;109663;1260;41288;-64
2022/06/14 13:59:20;;;;;;;3.60;1.60;;;;;27.10;97478.00;;;;109722;1262;41198;-64
2022/06/14 14:02:04;;;;;;;2.70;1.40;;;;;27.20;97472.60;;;;110154;1256;41143;-64
2022/06/14 14:04:38;;;;;;;2.00;1.40;;;;;27.20;97466.60;;;;110464;1254;41130;-63